createdAt,value
2023-03-22T00:02:13.343Z,32.80
2023-03-22T00:04:41.745Z,41.30
2023-03-22T00:07:08.299Z,37.08
2023-03-22T00:09:34.860Z,39.13
2023-03-22T00:12:01.489Z,35.60
2023-03-22T00:14:28.065Z,37.55
2023-03-22T00:16:54.686Z,32.42
2023-03-22T00:19:21.237Z,33.13
2023-03-22T00:21:47.850Z,35.03
2023-03-22T00:24:14.444Z,31.80
2023-03-22T00:26:41.052Z,35.88
2023-03-22T00:29:08.723Z,33.78
2023-03-22T00:31:35.418Z,33.40
2023-03-22T00:34:03.126Z,36.47
2023-03-22T00:36:29.787Z,32.22
2023-03-22T00:38:56.502Z,33.08
2023-03-22T00:41:24.060Z,35.55
2023-03-22T00:43:51.923Z,39.65
2023-03-22T00:46:20.525Z,36.95
2023-03-22T00:48:47.910Z,34.08
2023-03-22T00:51:15.096Z,35.25
2023-03-22T00:53:43.243Z,31.20
2023-03-22T00:56:13.957Z,35.00
2023-03-22T00:58:41.110Z,30.08
2023-03-22T01:01:08.404Z,33.50
2023-03-22T01:03:35.198Z,42.17
2023-03-22T01:06:01.932Z,35.25
2023-03-22T01:08:33.417Z,33.72
2023-03-22T01:11:01.313Z,38.42
2023-03-22T01:13:29.614Z,37.78
2023-03-22T01:15:59.171Z,35.08
2023-03-22T01:18:25.701Z,35.60
2023-03-22T01:20:52.367Z,39.95
2023-03-22T01:23:18.909Z,34.45
2023-03-22T01:25:46.613Z,32.70
2023-03-22T01:28:13.464Z,32.63
2023-03-22T01:30:41.011Z,40.45
2023-03-22T01:33:08.252Z,30.48
2023-03-22T01:35:36.261Z,38.33
2023-03-22T01:38:03.164Z,32.58
2023-03-22T01:40:29.852Z,36.45
2023-03-22T01:42:56.811Z,36.55
2023-03-22T01:45:38.828Z,32.40
2023-03-22T01:48:21.841Z,37.65
2023-03-22T01:50:56.197Z,36.72
2023-03-22T01:53:25.352Z,33.90
2023-03-22T01:55:53.572Z,32.97
2023-03-22T01:58:20.558Z,31.50
2023-03-22T02:00:50.419Z,30.95
2023-03-22T02:03:25.994Z,28.42
2023-03-22T02:06:07.204Z,39.53
2023-03-22T02:08:36.428Z,39.30
2023-03-22T02:11:04.555Z,36.00
2023-03-22T02:13:47.847Z,38.40
2023-03-22T02:16:43.209Z,31.50
2023-03-22T02:19:42.479Z,35.55
2023-03-22T02:22:15.040Z,42.10
2023-03-22T02:24:55.641Z,31.70
2023-03-22T02:27:44.113Z,36.45
2023-03-22T02:30:35.372Z,37.33
2023-03-22T02:33:19.382Z,43.33
2023-03-22T02:35:46.182Z,36.13
2023-03-22T02:38:36.797Z,39.72
2023-03-22T02:41:17.522Z,47.13
2023-03-22T02:44:02.849Z,35.97
2023-03-22T02:46:56.006Z,44.88
2023-03-22T02:49:33.422Z,32.53
2023-03-22T02:52:17.597Z,38.83
2023-03-22T02:54:52.993Z,39.78
2023-03-22T02:57:31.419Z,44.17
2023-03-22T03:00:00.815Z,35.00
2023-03-22T03:02:29.385Z,33.47
2023-03-22T03:04:56.943Z,32.53
2023-03-22T03:07:29.037Z,33.13
2023-03-22T03:09:56.423Z,37.05
2023-03-22T03:12:28.059Z,36.28
2023-03-22T03:14:55.270Z,33.70
2023-03-22T03:18:02.102Z,33.00
2023-03-22T03:21:17.044Z,33.72
2023-03-22T03:23:56.057Z,40.05
2023-03-22T03:26:45.854Z,46.58
2023-03-22T03:29:24.420Z,40.58
2023-03-22T03:32:00.761Z,43.20
2023-03-22T03:34:38.117Z,40.45
2023-03-22T03:37:15.956Z,40.42
2023-03-22T03:39:48.303Z,35.28
2023-03-22T03:42:17.052Z,42.92
2023-03-22T03:44:44.466Z,36.05
2023-03-22T03:47:12.152Z,37.45
2023-03-22T03:49:39.207Z,39.58
2023-03-22T03:52:06.676Z,36.78
2023-03-22T03:54:33.610Z,46.15
2023-03-22T03:57:02.833Z,28.60
2023-03-22T03:59:30.502Z,36.92
2023-03-22T04:01:57.141Z,37.00
2023-03-22T04:04:27.437Z,39.58
2023-03-22T04:06:59.254Z,40.25
2023-03-22T04:09:28.554Z,42.40
2023-03-22T04:11:56.296Z,41.30
2023-03-22T04:14:24.475Z,40.53
2023-03-22T04:16:51.803Z,39.95
2023-03-22T04:19:19.152Z,45.53
2023-03-22T04:21:46.126Z,34.42
2023-03-22T04:24:13.285Z,36.55
2023-03-22T04:26:40.449Z,36.85
2023-03-22T04:29:07.559Z,33.53
2023-03-22T04:31:35.731Z,37.08
2023-03-22T04:34:05.694Z,37.13
2023-03-22T04:36:36.539Z,40.78
2023-03-22T04:39:05.997Z,39.72
2023-03-22T04:41:33.766Z,46.95
2023-03-22T04:44:03.584Z,40.33
2023-03-22T04:46:36.032Z,36.35
2023-03-22T04:49:03.893Z,44.97
2023-03-22T04:51:32.135Z,34.15
2023-03-22T04:53:59.125Z,43.53
2023-03-22T04:56:25.985Z,44.28
2023-03-22T04:58:52.762Z,45.13
2023-03-22T05:01:19.383Z,36.38
2023-03-22T05:03:47.491Z,34.75
2023-03-22T05:06:15.301Z,35.65
2023-03-22T05:08:42.609Z,38.42
2023-03-22T05:11:13.198Z,41.75
2023-03-22T05:13:40.421Z,36.92
2023-03-22T05:16:08.064Z,41.55
2023-03-22T05:18:40.022Z,41.40
2023-03-22T05:21:06.908Z,34.95
2023-03-22T05:23:33.515Z,44.45
2023-03-22T05:26:01.692Z,44.60
2023-03-22T05:28:28.609Z,43.20
2023-03-22T05:30:57.232Z,39.42
2023-03-22T05:33:24.080Z,46.00
2023-03-22T05:35:51.363Z,40.47
2023-03-22T05:38:18.247Z,45.67
2023-03-22T05:40:45.373Z,27.35
2023-03-22T06:04:04.843Z,44.22
2023-03-22T06:06:31.484Z,40.97
2023-03-22T06:09:10.583Z,48.13
2023-03-22T06:11:42.641Z,46.70
2023-03-22T06:14:09.247Z,45.85
2023-03-22T06:16:35.983Z,41.53
2023-03-22T06:19:02.756Z,39.55
2023-03-22T06:21:29.354Z,36.92
2023-03-22T06:23:56.328Z,46.35
2023-03-22T06:26:23.016Z,44.90
2023-03-22T06:28:49.599Z,39.28
2023-03-22T06:31:16.321Z,49.85
2023-03-22T06:33:43.553Z,45.40
2023-03-22T06:36:10.388Z,38.78
2023-03-22T06:38:37.049Z,37.42
2023-03-22T06:41:03.736Z,36.80
2023-03-22T06:43:30.374Z,42.22
2023-03-22T06:46:00.062Z,46.78
2023-03-22T06:48:26.737Z,49.95
2023-03-22T06:50:53.345Z,47.70
2023-03-22T06:53:20.021Z,49.60
2023-03-22T06:55:47.038Z,50.72
2023-03-22T06:58:13.936Z,41.53
2023-03-22T07:00:41.556Z,43.60
2023-03-22T07:03:08.400Z,46.63
2023-03-22T07:05:35.050Z,39.58
2023-03-22T07:08:02.042Z,46.95
2023-03-22T07:10:28.870Z,40.95
2023-03-22T07:12:55.736Z,50.08
2023-03-22T07:15:25.160Z,45.00
2023-03-22T07:17:52.468Z,40.83
2023-03-22T07:20:19.935Z,46.20
2023-03-22T07:22:46.559Z,39.20
2023-03-22T07:25:13.446Z,45.33
2023-03-22T07:27:40.365Z,46.35
2023-03-22T07:30:09.441Z,45.47
2023-03-22T07:32:36.527Z,43.80
2023-03-22T07:35:03.212Z,39.50
2023-03-22T07:37:29.930Z,38.88
2023-03-22T07:39:56.550Z,37.15
2023-03-22T07:42:23.162Z,35.67
2023-03-22T07:44:49.928Z,42.72
2023-03-22T07:47:20.278Z,39.78
2023-03-22T07:49:51.476Z,41.08
2023-03-22T07:52:18.360Z,41.03
2023-03-22T07:54:44.988Z,42.22
2023-03-22T07:57:11.593Z,36.08
2023-03-22T07:59:40.072Z,40.33
2023-03-22T08:02:07.040Z,40.45
2023-03-22T08:04:34.256Z,38.78
2023-03-22T08:07:00.791Z,41.42
2023-03-22T08:09:27.387Z,38.28
2023-03-22T08:11:54.047Z,39.30
2023-03-22T08:14:30.602Z,37.40
2023-03-22T08:17:00.849Z,37.47
2023-03-22T08:19:28.104Z,34.80
2023-03-22T08:21:54.653Z,36.87
2023-03-22T08:24:21.434Z,38.97
2023-03-22T08:26:49.811Z,39.10
2023-03-22T08:29:16.882Z,38.42
2023-03-22T08:31:43.498Z,41.35
2023-03-22T08:34:10.445Z,37.90
2023-03-22T08:36:38.621Z,40.10
2023-03-22T08:39:05.707Z,37.85
2023-03-22T08:41:32.310Z,39.95
2023-03-22T08:43:58.918Z,42.25
2023-03-22T08:46:25.677Z,39.20
2023-03-22T08:48:52.597Z,36.33
2023-03-22T08:51:22.046Z,35.90
2023-03-22T08:53:49.691Z,45.20
2023-03-22T08:56:20.217Z,49.83
2023-03-22T08:58:47.238Z,34.58
2023-03-22T09:01:15.613Z,37.65
2023-03-22T09:03:42.926Z,37.53
2023-03-22T09:06:10.909Z,39.07
2023-03-22T09:11:07.753Z,40.13
2023-03-22T09:13:34.732Z,38.10
2023-03-22T09:16:01.350Z,36.90
2023-03-22T09:18:28.166Z,37.65
2023-03-22T09:20:55.042Z,37.78
2023-03-22T09:23:21.701Z,36.03
2023-03-22T09:25:48.887Z,37.10
2023-03-22T09:28:17.057Z,33.93
2023-03-22T09:30:44.895Z,36.75
2023-03-22T09:33:11.762Z,34.72
2023-03-22T09:35:43.067Z,35.47
2023-03-22T09:38:12.167Z,38.47
2023-03-22T09:41:00.423Z,32.15
2023-03-22T09:43:35.431Z,33.08
2023-03-22T09:46:03.865Z,28.08
2023-03-22T09:48:34.066Z,29.80
2023-03-22T09:51:02.794Z,32.53
2023-03-22T09:53:31.730Z,28.02
2023-03-22T09:56:14.447Z,32.83
2023-03-22T09:58:47.219Z,28.13
2023-03-22T10:01:29.269Z,25.73
2023-03-22T10:04:22.219Z,30.17
2023-03-22T10:06:54.910Z,31.38
2023-03-22T10:09:39.181Z,27.88
2023-03-22T10:12:11.956Z,31.70
2023-03-22T10:15:01.869Z,29.05
2023-03-22T10:17:29.758Z,24.63
2023-03-22T10:20:05.416Z,30.13
2023-03-22T10:22:36.336Z,31.05
2023-03-22T10:25:06.127Z,29.42
2023-03-22T10:27:34.717Z,30.10
2023-03-22T10:30:19.450Z,28.30
2023-03-22T10:33:11.134Z,30.83
2023-03-22T10:35:38.341Z,32.58
2023-03-22T10:38:09.440Z,32.17
2023-03-22T10:40:37.511Z,31.05
2023-03-22T10:45:58.619Z,34.40
2023-03-22T10:48:35.384Z,32.33
2023-03-22T10:51:02.337Z,35.65
2023-03-22T10:53:40.894Z,29.50
2023-03-22T10:56:14.045Z,34.65
2023-03-22T10:58:40.809Z,30.15
2023-03-22T11:01:10.962Z,32.38
2023-03-22T11:03:44.913Z,29.75
2023-03-22T11:06:17.857Z,28.38
2023-03-22T11:08:48.937Z,24.48
2023-03-22T11:11:22.636Z,34.15
2023-03-22T11:14:04.681Z,22.85
2023-03-22T11:16:32.567Z,27.42
2023-03-22T11:19:02.365Z,31.25
2023-03-22T11:21:33.185Z,28.50
2023-03-22T11:24:04.783Z,29.23
2023-03-22T11:26:37.463Z,27.67
2023-03-22T11:29:16.654Z,23.55
2023-03-22T11:31:55.147Z,20.77
2023-03-22T11:34:24.851Z,21.35
2023-03-22T11:36:54.822Z,28.70
2023-03-22T11:39:23.633Z,22.85
2023-03-22T11:41:51.157Z,27.60
2023-03-22T11:44:21.658Z,25.97
2023-03-22T11:47:01.139Z,25.17
2023-03-22T11:49:39.765Z,25.38
2023-03-22T11:52:29.410Z,25.10
2023-03-22T11:54:58.944Z,25.98
2023-03-22T11:57:34.633Z,30.15
2023-03-22T12:00:14.215Z,26.55
2023-03-22T12:02:56.023Z,25.38
2023-03-22T12:05:27.624Z,31.50
2023-03-22T12:08:01.817Z,31.15
2023-03-22T12:10:31.919Z,31.75
2023-03-22T12:13:04.483Z,25.38
2023-03-22T12:15:35.389Z,27.42
2023-03-22T12:18:19.394Z,25.25
2023-03-22T12:20:56.904Z,31.17
2023-03-22T12:23:26.647Z,27.67
2023-03-22T12:26:12.448Z,25.05
2023-03-22T12:28:49.928Z,30.33
2023-03-22T12:31:21.645Z,25.23
2023-03-22T12:33:51.532Z,22.38
2023-03-22T12:36:21.919Z,27.40
2023-03-22T12:38:57.358Z,22.40
2023-03-22T12:41:34.494Z,28.42
2023-03-22T12:44:43.320Z,27.73
2023-03-22T12:47:23.606Z,27.73
2023-03-22T12:50:00.549Z,26.90
2023-03-22T12:52:45.727Z,29.52
2023-03-22T12:55:36.705Z,28.38
2023-03-22T12:58:07.362Z,26.38
2023-03-22T13:00:41.012Z,27.30
2023-03-22T13:03:17.475Z,27.98
2023-03-22T13:06:00.771Z,31.80
2023-03-22T13:09:06.167Z,25.83
2023-03-22T13:11:33.263Z,26.58
2023-03-22T13:13:59.772Z,26.80
2023-03-22T13:16:48.945Z,29.77
2023-03-22T13:19:28.863Z,26.15
2023-03-22T13:22:21.070Z,25.42
2023-03-22T13:25:30.544Z,25.20
2023-03-22T13:28:19.883Z,26.80
2023-03-22T13:30:53.728Z,22.05
2023-03-22T13:33:29.502Z,26.63
2023-03-22T13:36:01.545Z,22.98
2023-03-22T13:38:41.726Z,17.83
2023-03-22T13:41:42.065Z,20.55
2023-03-22T13:44:36.088Z,18.13
2023-03-22T13:47:03.236Z,18.70
2023-03-22T13:49:45.928Z,26.95
2023-03-22T13:52:34.626Z,14.55
2023-03-22T13:55:01.434Z,19.10
2023-03-22T13:57:58.918Z,19.08
2023-03-22T14:00:31.542Z,21.92
2023-03-22T14:03:02.108Z,22.40
2023-03-22T14:05:32.728Z,21.10
2023-03-22T14:08:00.740Z,26.95
2023-03-22T14:10:42.329Z,23.40
2023-03-22T14:13:30.772Z,21.73
2023-03-22T14:16:04.595Z,21.25
2023-03-22T14:18:33.310Z,19.88
2023-03-22T14:21:18.018Z,21.25
